sensor_id;sensor_type;location;lat;lon;timestamp;P1;durP1;ratioP1;P2;durP2;ratioP2
79747;SDS011;69232;47.488;19.268;2023-09-18T00:02:18;8.02;;;4.00;;
79747;SDS011;69232;47.488;19.268;2023-09-18T00:04:43;7.55;;;4.15;;
79747;SDS011;69232;47.488;19.268;2023-09-18T00:07:09;6.63;;;4.05;;
79747;SDS011;69232;47.488;19.268;2023-09-18T00:09:36;8.73;;;5.15;;
79747;SDS011;69232;47.488;19.268;2023-09-18T00:12:01;9.05;;;4.53;;
79747;SDS011;69232;47.488;19.268;2023-09-18T00:14:26;8.02;;;4.10;;
79747;SDS011;69232;47.488;19.268;2023-09-18T00:16:52;8.77;;;4.28;;
79747;SDS011;69232;47.488;19.268;2023-09-18T00:19:17;7.47;;;4.43;;
79747;SDS011;69232;47.488;19.268;2023-09-18T00:21:43;8.27;;;4.90;;
79747;SDS011;69232;47.488;19.268;2023-09-18T00:24:09;8.20;;;4.78;;
79747;SDS011;69232;47.488;19.268;2023-09-18T00:26:34;8.82;;;4.88;;
79747;SDS011;69232;47.488;19.268;2023-09-18T00:28:59;7.18;;;4.45;;
79747;SDS011;69232;47.488;19.268;2023-09-18T00:31:25;6.93;;;4.15;;
79747;SDS011;69232;47.488;19.268;2023-09-18T00:33:50;8.23;;;4.35;;
79747;SDS011;69232;47.488;19.268;2023-09-18T00:36:16;7.13;;;4.47;;
79747;SDS011;69232;47.488;19.268;2023-09-18T00:38:41;7.03;;;4.45;;
79747;SDS011;69232;47.488;19.268;2023-09-18T00:41:07;8.40;;;4.38;;
79747;SDS011;69232;47.488;19.268;2023-09-18T00:43:32;7.00;;;4.03;;
79747;SDS011;69232;47.488;19.268;2023-09-18T00:45:57;8.90;;;4.47;;
79747;SDS011;69232;47.488;19.268;2023-09-18T00:48:23;7.95;;;4.30;;
79747;SDS011;69232;47.488;19.268;2023-09-18T00:50:48;9.95;;;4.90;;
79747;SDS011;69232;47.488;19.268;2023-09-18T00:53:15;8.77;;;5.18;;
79747;SDS011;69232;47.488;19.268;2023-09-18T00:55:45;8.57;;;4.68;;
79747;SDS011;69232;47.488;19.268;2023-09-18T00:58:10;6.90;;;4.45;;
79747;SDS011;69232;47.488;19.268;2023-09-18T01:00:36;7.57;;;3.97;;
79747;SDS011;69232;47.488;19.268;2023-09-18T01:03:03;8.02;;;4.90;;
79747;SDS011;69232;47.488;19.268;2023-09-18T01:05:33;9.50;;;4.70;;
79747;SDS011;69232;47.488;19.268;2023-09-18T01:07:58;10.07;;;5.00;;
79747;SDS011;69232;47.488;19.268;2023-09-18T01:10:24;8.00;;;4.60;;
79747;SDS011;69232;47.488;19.268;2023-09-18T01:12:55;7.47;;;4.57;;
79747;SDS011;69232;47.488;19.268;2023-09-18T01:15:32;8.07;;;4.28;;
79747;SDS011;69232;47.488;19.268;2023-09-18T01:18:00;6.95;;;4.40;;
79747;SDS011;69232;47.488;19.268;2023-09-18T01:20:26;7.13;;;4.50;;
79747;SDS011;69232;47.488;19.268;2023-09-18T01:22:52;9.18;;;4.50;;
79747;SDS011;69232;47.488;19.268;2023-09-18T01:25:18;10.57;;;4.90;;
79747;SDS011;69232;47.488;19.268;2023-09-18T01:27:43;10.48;;;4.88;;
79747;SDS011;69232;47.488;19.268;2023-09-18T01:30:09;7.55;;;4.90;;
79747;SDS011;69232;47.488;19.268;2023-09-18T01:32:34;8.63;;;4.47;;
79747;SDS011;69232;47.488;19.268;2023-09-18T01:35:02;8.35;;;4.97;;
79747;SDS011;69232;47.488;19.268;2023-09-18T01:37:30;7.75;;;5.20;;
79747;SDS011;69232;47.488;19.268;2023-09-18T01:39:56;10.57;;;5.10;;
79747;SDS011;69232;47.488;19.268;2023-09-18T01:42:27;7.32;;;4.47;;
79747;SDS011;69232;47.488;19.268;2023-09-18T01:44:53;7.78;;;4.45;;
79747;SDS011;69232;47.488;19.268;2023-09-18T01:47:20;7.47;;;4.57;;
79747;SDS011;69232;47.488;19.268;2023-09-18T01:49:48;8.88;;;4.82;;
79747;SDS011;69232;47.488;19.268;2023-09-18T01:52:14;8.55;;;5.20;;
79747;SDS011;69232;47.488;19.268;2023-09-18T01:54:40;8.43;;;5.15;;
79747;SDS011;69232;47.488;19.268;2023-09-18T01:57:05;8.48;;;5.15;;
79747;SDS011;69232;47.488;19.268;2023-09-18T01:59:32;9.18;;;5.47;;
79747;SDS011;69232;47.488;19.268;2023-09-18T02:01:58;8.18;;;5.18;;
79747;SDS011;69232;47.488;19.268;2023-09-18T02:04:24;9.02;;;4.88;;
79747;SDS011;69232;47.488;19.268;2023-09-18T02:06:50;9.25;;;5.43;;
79747;SDS011;69232;47.488;19.268;2023-09-18T02:09:17;7.43;;;4.85;;
79747;SDS011;69232;47.488;19.268;2023-09-18T02:11:43;8.05;;;4.57;;
79747;SDS011;69232;47.488;19.268;2023-09-18T02:14:10;9.60;;;4.57;;
79747;SDS011;69232;47.488;19.268;2023-09-18T02:16:36;12.45;;;5.57;;
79747;SDS011;69232;47.488;19.268;2023-09-18T02:19:03;8.55;;;5.18;;
79747;SDS011;69232;47.488;19.268;2023-09-18T02:21:29;10.02;;;5.00;;
79747;SDS011;69232;47.488;19.268;2023-09-18T02:23:54;10.40;;;5.85;;
79747;SDS011;69232;47.488;19.268;2023-09-18T02:26:20;8.27;;;5.20;;
79747;SDS011;69232;47.488;19.268;2023-09-18T02:28:46;10.05;;;5.25;;
79747;SDS011;69232;47.488;19.268;2023-09-18T02:31:12;11.63;;;5.68;;
79747;SDS011;69232;47.488;19.268;2023-09-18T02:33:38;8.75;;;5.43;;
79747;SDS011;69232;47.488;19.268;2023-09-18T02:36:04;9.73;;;5.47;;
79747;SDS011;69232;47.488;19.268;2023-09-18T02:38:30;10.10;;;5.53;;
79747;SDS011;69232;47.488;19.268;2023-09-18T02:40:55;8.80;;;4.88;;
79747;SDS011;69232;47.488;19.268;2023-09-18T02:43:22;8.55;;;4.82;;
79747;SDS011;69232;47.488;19.268;2023-09-18T02:45:47;10.45;;;5.25;;
79747;SDS011;69232;47.488;19.268;2023-09-18T02:48:13;10.88;;;5.78;;
79747;SDS011;69232;47.488;19.268;2023-09-18T02:50:38;10.25;;;5.70;;
79747;SDS011;69232;47.488;19.268;2023-09-18T02:53:05;11.98;;;5.47;;
79747;SDS011;69232;47.488;19.268;2023-09-18T02:55:31;9.73;;;5.32;;
79747;SDS011;69232;47.488;19.268;2023-09-18T02:57:56;8.50;;;5.43;;
79747;SDS011;69232;47.488;19.268;2023-09-18T03:00:22;11.73;;;4.95;;
79747;SDS011;69232;47.488;19.268;2023-09-18T03:02:47;11.13;;;5.72;;
79747;SDS011;69232;47.488;19.268;2023-09-18T03:05:13;8.82;;;5.07;;
79747;SDS011;69232;47.488;19.268;2023-09-18T03:07:38;10.77;;;4.80;;
79747;SDS011;69232;47.488;19.268;2023-09-18T03:10:04;11.38;;;5.43;;
79747;SDS011;69232;47.488;19.268;2023-09-18T03:12:30;10.07;;;5.75;;
79747;SDS011;69232;47.488;19.268;2023-09-18T03:14:56;11.55;;;6.10;;
79747;SDS011;69232;47.488;19.268;2023-09-18T03:17:22;9.27;;;5.13;;
79747;SDS011;69232;47.488;19.268;2023-09-18T03:19:48;9.82;;;5.85;;
79747;SDS011;69232;47.488;19.268;2023-09-18T03:22:14;10.80;;;5.55;;
79747;SDS011;69232;47.488;19.268;2023-09-18T03:24:39;7.13;;;4.95;;
79747;SDS011;69232;47.488;19.268;2023-09-18T03:27:05;8.75;;;6.07;;
79747;SDS011;69232;47.488;19.268;2023-09-18T03:29:30;9.48;;;5.32;;
79747;SDS011;69232;47.488;19.268;2023-09-18T03:31:56;11.90;;;5.10;;
79747;SDS011;69232;47.488;19.268;2023-09-18T03:34:23;10.73;;;5.43;;
79747;SDS011;69232;47.488;19.268;2023-09-18T03:36:52;10.02;;;5.60;;
79747;SDS011;69232;47.488;19.268;2023-09-18T03:39:17;8.45;;;5.60;;
79747;SDS011;69232;47.488;19.268;2023-09-18T03:41:43;12.35;;;5.55;;
79747;SDS011;69232;47.488;19.268;2023-09-18T03:44:08;11.60;;;5.75;;
79747;SDS011;69232;47.488;19.268;2023-09-18T03:46:35;8.55;;;5.00;;
79747;SDS011;69232;47.488;19.268;2023-09-18T03:49:01;12.68;;;6.22;;
79747;SDS011;69232;47.488;19.268;2023-09-18T03:51:26;11.95;;;6.38;;
79747;SDS011;69232;47.488;19.268;2023-09-18T03:53:52;11.48;;;6.18;;
79747;SDS011;69232;47.488;19.268;2023-09-18T03:56:17;9.02;;;5.43;;
79747;SDS011;69232;47.488;19.268;2023-09-18T03:58:42;14.95;;;6.55;;
79747;SDS011;69232;47.488;19.268;2023-09-18T04:01:10;12.90;;;5.30;;
79747;SDS011;69232;47.488;19.268;2023-09-18T04:03:35;9.40;;;5.15;;
79747;SDS011;69232;47.488;19.268;2023-09-18T04:06:01;10.20;;;6.25;;
79747;SDS011;69232;47.488;19.268;2023-09-18T04:08:26;13.25;;;5.93;;
79747;SDS011;69232;47.488;19.268;2023-09-18T04:10:52;12.48;;;5.93;;
79747;SDS011;69232;47.488;19.268;2023-09-18T04:13:20;11.75;;;5.97;;
79747;SDS011;69232;47.488;19.268;2023-09-18T04:15:46;10.95;;;6.30;;
79747;SDS011;69232;47.488;19.268;2023-09-18T04:18:11;12.90;;;6.68;;
79747;SDS011;69232;47.488;19.268;2023-09-18T04:20:37;9.27;;;5.55;;
79747;SDS011;69232;47.488;19.268;2023-09-18T04:25:47;13.32;;;6.03;;
79747;SDS011;69232;47.488;19.268;2023-09-18T04:28:16;12.25;;;6.43;;
79747;SDS011;69232;47.488;19.268;2023-09-18T04:30:43;10.77;;;6.38;;
79747;SDS011;69232;47.488;19.268;2023-09-18T04:33:08;12.38;;;6.80;;
79747;SDS011;69232;47.488;19.268;2023-09-18T04:35:34;10.85;;;6.05;;
79747;SDS011;69232;47.488;19.268;2023-09-18T04:37:59;14.45;;;6.22;;
79747;SDS011;69232;47.488;19.268;2023-09-18T04:40:25;14.80;;;6.78;;
79747;SDS011;69232;47.488;19.268;2023-09-18T04:42:57;13.10;;;5.85;;
79747;SDS011;69232;47.488;19.268;2023-09-18T04:45:25;14.65;;;6.50;;
79747;SDS011;69232;47.488;19.268;2023-09-18T04:47:51;10.73;;;6.00;;
79747;SDS011;69232;47.488;19.268;2023-09-18T04:50:17;11.32;;;5.80;;
79747;SDS011;69232;47.488;19.268;2023-09-18T04:52:43;11.32;;;6.22;;
79747;SDS011;69232;47.488;19.268;2023-09-18T04:55:09;12.18;;;6.43;;
79747;SDS011;69232;47.488;19.268;2023-09-18T04:57:35;10.35;;;5.78;;
79747;SDS011;69232;47.488;19.268;2023-09-18T05:00:01;9.85;;;5.47;;
79747;SDS011;69232;47.488;19.268;2023-09-18T05:02:26;12.18;;;5.82;;
79747;SDS011;69232;47.488;19.268;2023-09-18T05:04:52;14.40;;;7.18;;
79747;SDS011;69232;47.488;19.268;2023-09-18T05:07:17;13.77;;;7.05;;
79747;SDS011;69232;47.488;19.268;2023-09-18T05:09:43;14.20;;;6.80;;
79747;SDS011;69232;47.488;19.268;2023-09-18T05:12:08;11.05;;;6.45;;
79747;SDS011;69232;47.488;19.268;2023-09-18T05:14:39;12.95;;;6.80;;
79747;SDS011;69232;47.488;19.268;2023-09-18T05:17:05;13.48;;;6.65;;
79747;SDS011;69232;47.488;19.268;2023-09-18T05:19:31;11.18;;;6.07;;
79747;SDS011;69232;47.488;19.268;2023-09-18T05:21:56;10.18;;;6.30;;
79747;SDS011;69232;47.488;19.268;2023-09-18T05:24:22;11.80;;;6.35;;
79747;SDS011;69232;47.488;19.268;2023-09-18T05:26:52;9.77;;;5.68;;
79747;SDS011;69232;47.488;19.268;2023-09-18T05:29:18;13.80;;;5.95;;
79747;SDS011;69232;47.488;19.268;2023-09-18T05:31:43;13.30;;;6.38;;
79747;SDS011;69232;47.488;19.268;2023-09-18T05:34:10;12.10;;;6.40;;
79747;SDS011;69232;47.488;19.268;2023-09-18T05:36:36;12.23;;;6.38;;
79747;SDS011;69232;47.488;19.268;2023-09-18T05:39:01;11.95;;;6.28;;
79747;SDS011;69232;47.488;19.268;2023-09-18T05:41:28;12.60;;;6.32;;
79747;SDS011;69232;47.488;19.268;2023-09-18T05:43:54;10.77;;;6.13;;
79747;SDS011;69232;47.488;19.268;2023-09-18T05:46:21;10.10;;;6.15;;
79747;SDS011;69232;47.488;19.268;2023-09-18T05:48:46;13.02;;;5.88;;
79747;SDS011;69232;47.488;19.268;2023-09-18T05:51:12;11.02;;;6.30;;
79747;SDS011;69232;47.488;19.268;2023-09-18T05:53:37;8.95;;;5.15;;
79747;SDS011;69232;47.488;19.268;2023-09-18T05:56:03;12.15;;;6.35;;
79747;SDS011;69232;47.488;19.268;2023-09-18T05:58:31;9.95;;;5.93;;
79747;SDS011;69232;47.488;19.268;2023-09-18T06:00:58;10.18;;;5.72;;
79747;SDS011;69232;47.488;19.268;2023-09-18T06:03:25;8.30;;;5.38;;
79747;SDS011;69232;47.488;19.268;2023-09-18T06:05:51;8.35;;;5.28;;
79747;SDS011;69232;47.488;19.268;2023-09-18T06:08:17;10.85;;;6.05;;
79747;SDS011;69232;47.488;19.268;2023-09-18T06:10:44;8.50;;;5.25;;
79747;SDS011;69232;47.488;19.268;2023-09-18T06:13:09;11.98;;;6.00;;
79747;SDS011;69232;47.488;19.268;2023-09-18T06:15:35;12.20;;;5.60;;
79747;SDS011;69232;47.488;19.268;2023-09-18T06:18:01;8.63;;;5.65;;
79747;SDS011;69232;47.488;19.268;2023-09-18T06:20:28;11.32;;;5.70;;
79747;SDS011;69232;47.488;19.268;2023-09-18T06:22:54;9.55;;;5.15;;
79747;SDS011;69232;47.488;19.268;2023-09-18T06:25:19;9.70;;;5.53;;
79747;SDS011;69232;47.488;19.268;2023-09-18T06:27:44;12.35;;;5.60;;
79747;SDS011;69232;47.488;19.268;2023-09-18T06:30:11;7.30;;;4.43;;
79747;SDS011;69232;47.488;19.268;2023-09-18T06:32:36;8.48;;;5.20;;
79747;SDS011;69232;47.488;19.268;2023-09-18T06:35:02;8.82;;;5.15;;
79747;SDS011;69232;47.488;19.268;2023-09-18T06:37:28;12.82;;;5.60;;
79747;SDS011;69232;47.488;19.268;2023-09-18T06:39:53;11.43;;;5.25;;
79747;SDS011;69232;47.488;19.268;2023-09-18T06:42:19;17.55;;;6.20;;
79747;SDS011;69232;47.488;19.268;2023-09-18T06:44:45;8.98;;;5.65;;
79747;SDS011;69232;47.488;19.268;2023-09-18T06:47:10;9.43;;;4.57;;
79747;SDS011;69232;47.488;19.268;2023-09-18T06:49:36;7.68;;;4.93;;
79747;SDS011;69232;47.488;19.268;2023-09-18T06:52:02;9.38;;;5.22;;
79747;SDS011;69232;47.488;19.268;2023-09-18T06:54:27;10.07;;;5.03;;
79747;SDS011;69232;47.488;19.268;2023-09-18T06:56:53;10.85;;;4.88;;
79747;SDS011;69232;47.488;19.268;2023-09-18T06:59:18;8.48;;;4.93;;
79747;SDS011;69232;47.488;19.268;2023-09-18T07:01:43;7.75;;;4.95;;
79747;SDS011;69232;47.488;19.268;2023-09-18T07:04:09;7.85;;;4.78;;
79747;SDS011;69232;47.488;19.268;2023-09-18T07:06:35;7.22;;;4.18;;
79747;SDS011;69232;47.488;19.268;2023-09-18T07:09:00;7.65;;;4.90;;
79747;SDS011;69232;47.488;19.268;2023-09-18T07:11:27;7.47;;;4.60;;
79747;SDS011;69232;47.488;19.268;2023-09-18T07:13:52;10.70;;;5.70;;
79747;SDS011;69232;47.488;19.268;2023-09-18T07:16:17;10.93;;;5.20;;
79747;SDS011;69232;47.488;19.268;2023-09-18T07:18:43;8.77;;;4.75;;
79747;SDS011;69232;47.488;19.268;2023-09-18T07:21:08;7.70;;;5.00;;
79747;SDS011;69232;47.488;19.268;2023-09-18T07:23:34;13.45;;;5.40;;
79747;SDS011;69232;47.488;19.268;2023-09-18T07:26:02;7.43;;;4.93;;
79747;SDS011;69232;47.488;19.268;2023-09-18T07:28:28;7.03;;;4.50;;
79747;SDS011;69232;47.488;19.268;2023-09-18T07:30:53;7.88;;;5.00;;
79747;SDS011;69232;47.488;19.268;2023-09-18T07:33:19;8.48;;;4.68;;
79747;SDS011;69232;47.488;19.268;2023-09-18T07:35:48;8.63;;;5.03;;
79747;SDS011;69232;47.488;19.268;2023-09-18T07:38:14;8.82;;;5.13;;
79747;SDS011;69232;47.488;19.268;2023-09-18T07:40:40;10.05;;;5.22;;
79747;SDS011;69232;47.488;19.268;2023-09-18T07:43:05;10.63;;;5.10;;
79747;SDS011;69232;47.488;19.268;2023-09-18T07:45:31;6.88;;;4.53;;
79747;SDS011;69232;47.488;19.268;2023-09-18T07:47:56;9.10;;;4.90;;
79747;SDS011;69232;47.488;19.268;2023-09-18T07:50:25;8.63;;;5.53;;
79747;SDS011;69232;47.488;19.268;2023-09-18T07:52:50;8.50;;;5.03;;
79747;SDS011;69232;47.488;19.268;2023-09-18T07:55:15;8.05;;;4.47;;
79747;SDS011;69232;47.488;19.268;2023-09-18T07:57:41;11.98;;;5.32;;
79747;SDS011;69232;47.488;19.268;2023-09-18T08:00:06;10.55;;;5.10;;
79747;SDS011;69232;47.488;19.268;2023-09-18T08:02:37;7.55;;;5.03;;
79747;SDS011;69232;47.488;19.268;2023-09-18T08:05:03;9.20;;;5.10;;
79747;SDS011;69232;47.488;19.268;2023-09-18T08:07:30;7.82;;;4.78;;
79747;SDS011;69232;47.488;19.268;2023-09-18T08:09:55;9.30;;;5.82;;
79747;SDS011;69232;47.488;19.268;2023-09-18T08:12:21;7.78;;;4.63;;
79747;SDS011;69232;47.488;19.268;2023-09-18T08:14:47;10.55;;;5.70;;
79747;SDS011;69232;47.488;19.268;2023-09-18T08:17:15;9.35;;;4.57;;
79747;SDS011;69232;47.488;19.268;2023-09-18T08:19:40;7.90;;;4.60;;
79747;SDS011;69232;47.488;19.268;2023-09-18T08:22:06;9.32;;;5.50;;
79747;SDS011;69232;47.488;19.268;2023-09-18T08:24:31;8.25;;;4.68;;
79747;SDS011;69232;47.488;19.268;2023-09-18T08:26:57;7.13;;;4.80;;
79747;SDS011;69232;47.488;19.268;2023-09-18T08:29:22;6.82;;;4.35;;
79747;SDS011;69232;47.488;19.268;2023-09-18T08:31:48;7.82;;;4.90;;
79747;SDS011;69232;47.488;19.268;2023-09-18T08:34:15;7.30;;;4.45;;
79747;SDS011;69232;47.488;19.268;2023-09-18T08:36:40;7.40;;;4.65;;
79747;SDS011;69232;47.488;19.268;2023-09-18T08:39:06;8.38;;;5.05;;
79747;SDS011;69232;47.488;19.268;2023-09-18T08:41:31;11.30;;;5.13;;
79747;SDS011;69232;47.488;19.268;2023-09-18T08:44:00;6.80;;;5.03;;
79747;SDS011;69232;47.488;19.268;2023-09-18T08:46:28;6.60;;;4.95;;
79747;SDS011;69232;47.488;19.268;2023-09-18T08:48:54;8.27;;;5.00;;
79747;SDS011;69232;47.488;19.268;2023-09-18T08:51:21;8.27;;;5.13;;
79747;SDS011;69232;47.488;19.268;2023-09-18T08:53:46;6.30;;;4.70;;
79747;SDS011;69232;47.488;19.268;2023-09-18T08:56:12;10.25;;;5.53;;
79747;SDS011;69232;47.488;19.268;2023-09-18T08:58:37;7.85;;;4.53;;
79747;SDS011;69232;47.488;19.268;2023-09-18T09:01:07;10.65;;;5.38;;
79747;SDS011;69232;47.488;19.268;2023-09-18T09:03:38;11.48;;;4.85;;
79747;SDS011;69232;47.488;19.268;2023-09-18T09:06:05;7.45;;;4.82;;
79747;SDS011;69232;47.488;19.268;2023-09-18T09:08:31;8.73;;;5.65;;
79747;SDS011;69232;47.488;19.268;2023-09-18T09:10:57;9.77;;;4.90;;
79747;SDS011;69232;47.488;19.268;2023-09-18T09:13:23;11.02;;;5.88;;
79747;SDS011;69232;47.488;19.268;2023-09-18T09:15:51;9.52;;;5.43;;
79747;SDS011;69232;47.488;19.268;2023-09-18T09:18:19;9.27;;;5.72;;
79747;SDS011;69232;47.488;19.268;2023-09-18T09:23:23;10.85;;;5.47;;
79747;SDS011;69232;47.488;19.268;2023-09-18T09:25:48;10.20;;;6.35;;
79747;SDS011;69232;47.488;19.268;2023-09-18T09:28:14;8.30;;;5.57;;
79747;SDS011;69232;47.488;19.268;2023-09-18T09:30:41;7.32;;;4.60;;
79747;SDS011;69232;47.488;19.268;2023-09-18T09:33:07;8.75;;;5.50;;
79747;SDS011;69232;47.488;19.268;2023-09-18T09:35:34;7.47;;;5.07;;
79747;SDS011;69232;47.488;19.268;2023-09-18T09:38:10;8.45;;;5.43;;
79747;SDS011;69232;47.488;19.268;2023-09-18T09:40:39;8.88;;;5.07;;
79747;SDS011;69232;47.488;19.268;2023-09-18T09:43:09;7.00;;;4.78;;
79747;SDS011;69232;47.488;19.268;2023-09-18T09:45:36;8.82;;;4.60;;
79747;SDS011;69232;47.488;19.268;2023-09-18T09:48:05;10.07;;;4.88;;
79747;SDS011;69232;47.488;19.268;2023-09-18T09:50:31;9.50;;;6.85;;
79747;SDS011;69232;47.488;19.268;2023-09-18T09:52:57;9.40;;;4.18;;
79747;SDS011;69232;47.488;19.268;2023-09-18T09:55:27;9.30;;;5.07;;
79747;SDS011;69232;47.488;19.268;2023-09-18T09:57:57;7.60;;;4.85;;
79747;SDS011;69232;47.488;19.268;2023-09-18T10:03:11;7.47;;;4.50;;
79747;SDS011;69232;47.488;19.268;2023-09-18T10:05:38;9.40;;;5.22;;
79747;SDS011;69232;47.488;19.268;2023-09-18T10:08:10;8.23;;;4.63;;
79747;SDS011;69232;47.488;19.268;2023-09-18T10:10:50;7.90;;;5.35;;
79747;SDS011;69232;47.488;19.268;2023-09-18T10:15:50;8.73;;;4.80;;
79747;SDS011;69232;47.488;19.268;2023-09-18T10:18:26;8.93;;;4.80;;
79747;SDS011;69232;47.488;19.268;2023-09-18T10:21:01;7.30;;;4.60;;
79747;SDS011;69232;47.488;19.268;2023-09-18T10:26:20;6.22;;;4.20;;
79747;SDS011;69232;47.488;19.268;2023-09-18T10:28:50;10.82;;;4.93;;
79747;SDS011;69232;47.488;19.268;2023-09-18T10:31:18;6.43;;;4.72;;
79747;SDS011;69232;47.488;19.268;2023-09-18T10:33:44;8.32;;;4.60;;
79747;SDS011;69232;47.488;19.268;2023-09-18T10:36:11;7.78;;;4.32;;
79747;SDS011;69232;47.488;19.268;2023-09-18T10:38:37;7.93;;;4.30;;
79747;SDS011;69232;47.488;19.268;2023-09-18T10:41:03;8.25;;;4.85;;
79747;SDS011;69232;47.488;19.268;2023-09-18T10:43:30;9.60;;;5.20;;
79747;SDS011;69232;47.488;19.268;2023-09-18T10:45:55;7.68;;;5.00;;
79747;SDS011;69232;47.488;19.268;2023-09-18T10:48:21;6.10;;;4.43;;
79747;SDS011;69232;47.488;19.268;2023-09-18T10:50:47;7.25;;;4.75;;
79747;SDS011;69232;47.488;19.268;2023-09-18T10:53:13;6.47;;;4.10;;
79747;SDS011;69232;47.488;19.268;2023-09-18T10:55:38;7.50;;;4.47;;
79747;SDS011;69232;47.488;19.268;2023-09-18T10:58:04;6.80;;;4.18;;
79747;SDS011;69232;47.488;19.268;2023-09-18T11:00:31;9.55;;;5.38;;
79747;SDS011;69232;47.488;19.268;2023-09-18T11:03:15;6.13;;;4.50;;
79747;SDS011;69232;47.488;19.268;2023-09-18T11:05:43;7.75;;;4.90;;
79747;SDS011;69232;47.488;19.268;2023-09-18T11:08:29;6.85;;;4.55;;
79747;SDS011;69232;47.488;19.268;2023-09-18T11:11:08;9.00;;;5.07;;
79747;SDS011;69232;47.488;19.268;2023-09-18T11:13:57;8.18;;;4.80;;
79747;SDS011;69232;47.488;19.268;2023-09-18T11:18:54;7.25;;;4.88;;
79747;SDS011;69232;47.488;19.268;2023-09-18T11:21:31;10.30;;;4.88;;
79747;SDS011;69232;47.488;19.268;2023-09-18T11:26:31;7.03;;;4.95;;
79747;SDS011;69232;47.488;19.268;2023-09-18T11:29:01;7.38;;;4.88;;
79747;SDS011;69232;47.488;19.268;2023-09-18T11:34:25;14.07;;;5.35;;
79747;SDS011;69232;47.488;19.268;2023-09-18T11:36:51;7.88;;;4.97;;
79747;SDS011;69232;47.488;19.268;2023-09-18T11:42:12;7.75;;;5.60;;
79747;SDS011;69232;47.488;19.268;2023-09-18T11:44:39;9.02;;;4.88;;
79747;SDS011;69232;47.488;19.268;2023-09-18T11:47:11;9.05;;;5.00;;
79747;SDS011;69232;47.488;19.268;2023-09-18T11:49:42;9.10;;;5.43;;
79747;SDS011;69232;47.488;19.268;2023-09-18T11:52:12;8.35;;;5.82;;
79747;SDS011;69232;47.488;19.268;2023-09-18T11:54:39;9.68;;;5.85;;
79747;SDS011;69232;47.488;19.268;2023-09-18T11:57:04;7.32;;;4.97;;
79747;SDS011;69232;47.488;19.268;2023-09-18T11:59:40;13.10;;;5.43;;
79747;SDS011;69232;47.488;19.268;2023-09-18T12:02:08;8.57;;;5.22;;
79747;SDS011;69232;47.488;19.268;2023-09-18T12:04:35;9.52;;;5.80;;
79747;SDS011;69232;47.488;19.268;2023-09-18T12:07:01;8.45;;;5.85;;
79747;SDS011;69232;47.488;19.268;2023-09-18T12:09:30;9.57;;;5.88;;
79747;SDS011;69232;47.488;19.268;2023-09-18T12:11:57;7.82;;;5.47;;
79747;SDS011;69232;47.488;19.268;2023-09-18T12:14:32;7.85;;;5.43;;
79747;SDS011;69232;47.488;19.268;2023-09-18T12:16:59;8.95;;;5.60;;
79747;SDS011;69232;47.488;19.268;2023-09-18T12:19:26;7.93;;;5.35;;
79747;SDS011;69232;47.488;19.268;2023-09-18T12:21:51;7.28;;;4.93;;
79747;SDS011;69232;47.488;19.268;2023-09-18T12:24:21;13.40;;;5.55;;
79747;SDS011;69232;47.488;19.268;2023-09-18T12:26:47;11.23;;;5.47;;
79747;SDS011;69232;47.488;19.268;2023-09-18T12:29:12;6.10;;;4.93;;
79747;SDS011;69232;47.488;19.268;2023-09-18T12:31:39;9.75;;;5.45;;
79747;SDS011;69232;47.488;19.268;2023-09-18T12:34:05;8.98;;;5.85;;
79747;SDS011;69232;47.488;19.268;2023-09-18T12:36:42;7.80;;;5.78;;
79747;SDS011;69232;47.488;19.268;2023-09-18T12:39:08;8.70;;;5.65;;
79747;SDS011;69232;47.488;19.268;2023-09-18T12:41:35;8.05;;;5.72;;
79747;SDS011;69232;47.488;19.268;2023-09-18T12:44:00;9.80;;;5.57;;
79747;SDS011;69232;47.488;19.268;2023-09-18T12:46:26;7.40;;;5.25;;
79747;SDS011;69232;47.488;19.268;2023-09-18T12:48:52;9.20;;;5.43;;
79747;SDS011;69232;47.488;19.268;2023-09-18T12:51:17;8.38;;;5.25;;
79747;SDS011;69232;47.488;19.268;2023-09-18T12:53:47;7.90;;;5.75;;
79747;SDS011;69232;47.488;19.268;2023-09-18T12:56:13;8.10;;;5.07;;
79747;SDS011;69232;47.488;19.268;2023-09-18T12:58:40;11.35;;;5.32;;
79747;SDS011;69232;47.488;19.268;2023-09-18T13:01:06;8.80;;;5.45;;
79747;SDS011;69232;47.488;19.268;2023-09-18T13:03:36;8.65;;;5.53;;
79747;SDS011;69232;47.488;19.268;2023-09-18T13:06:08;7.63;;;5.25;;
79747;SDS011;69232;47.488;19.268;2023-09-18T13:08:37;9.45;;;5.35;;
79747;SDS011;69232;47.488;19.268;2023-09-18T13:11:03;7.10;;;4.50;;
79747;SDS011;69232;47.488;19.268;2023-09-18T13:13:29;8.13;;;5.32;;
79747;SDS011;69232;47.488;19.268;2023-09-18T13:15:59;7.68;;;5.13;;
79747;SDS011;69232;47.488;19.268;2023-09-18T13:18:26;7.47;;;5.10;;
79747;SDS011;69232;47.488;19.268;2023-09-18T13:20:52;7.03;;;5.13;;
79747;SDS011;69232;47.488;19.268;2023-09-18T13:23:18;10.00;;;5.78;;
79747;SDS011;69232;47.488;19.268;2023-09-18T13:25:44;10.57;;;6.18;;
79747;SDS011;69232;47.488;19.268;2023-09-18T13:28:11;6.78;;;4.72;;
79747;SDS011;69232;47.488;19.268;2023-09-18T13:30:38;8.90;;;5.43;;
79747;SDS011;69232;47.488;19.268;2023-09-18T13:33:06;8.02;;;5.38;;
79747;SDS011;69232;47.488;19.268;2023-09-18T13:35:34;12.07;;;5.30;;
79747;SDS011;69232;47.488;19.268;2023-09-18T13:38:00;7.53;;;5.30;;
79747;SDS011;69232;47.488;19.268;2023-09-18T13:40:29;11.52;;;6.53;;
79747;SDS011;69232;47.488;19.268;2023-09-18T13:42:54;10.52;;;5.35;;
79747;SDS011;69232;47.488;19.268;2023-09-18T13:45:20;8.65;;;5.40;;
79747;SDS011;69232;47.488;19.268;2023-09-18T13:47:45;8.30;;;5.40;;
79747;SDS011;69232;47.488;19.268;2023-09-18T13:50:10;7.30;;;4.75;;
79747;SDS011;69232;47.488;19.268;2023-09-18T13:52:39;9.32;;;5.38;;
79747;SDS011;69232;47.488;19.268;2023-09-18T13:55:05;10.93;;;5.43;;
79747;SDS011;69232;47.488;19.268;2023-09-18T13:57:31;8.73;;;5.43;;
79747;SDS011;69232;47.488;19.268;2023-09-18T13:59:57;10.32;;;5.32;;
79747;SDS011;69232;47.488;19.268;2023-09-18T14:02:22;8.40;;;5.85;;
79747;SDS011;69232;47.488;19.268;2023-09-18T14:04:52;9.18;;;5.78;;
79747;SDS011;69232;47.488;19.268;2023-09-18T14:07:18;8.52;;;5.55;;
79747;SDS011;69232;47.488;19.268;2023-09-18T14:09:43;9.60;;;4.80;;
79747;SDS011;69232;47.488;19.268;2023-09-18T14:12:08;7.18;;;4.85;;
79747;SDS011;69232;47.488;19.268;2023-09-18T14:14:34;7.18;;;5.03;;
79747;SDS011;69232;47.488;19.268;2023-09-18T14:17:00;7.22;;;4.93;;
79747;SDS011;69232;47.488;19.268;2023-09-18T14:19:27;8.00;;;5.30;;
79747;SDS011;69232;47.488;19.268;2023-09-18T14:21:53;7.30;;;5.15;;
79747;SDS011;69232;47.488;19.268;2023-09-18T14:24:18;8.63;;;5.68;;
79747;SDS011;69232;47.488;19.268;2023-09-18T14:26:47;8.55;;;4.97;;
79747;SDS011;69232;47.488;19.268;2023-09-18T14:29:14;7.57;;;5.45;;
79747;SDS011;69232;47.488;19.268;2023-09-18T14:31:39;9.30;;;5.75;;
79747;SDS011;69232;47.488;19.268;2023-09-18T14:34:05;8.73;;;5.50;;
79747;SDS011;69232;47.488;19.268;2023-09-18T14:36:31;10.57;;;5.50;;
79747;SDS011;69232;47.488;19.268;2023-09-18T14:38:59;9.38;;;5.25;;
79747;SDS011;69232;47.488;19.268;2023-09-18T14:41:25;7.68;;;4.97;;
79747;SDS011;69232;47.488;19.268;2023-09-18T14:43:51;9.95;;;5.45;;
79747;SDS011;69232;47.488;19.268;2023-09-18T14:46:17;7.50;;;5.18;;
79747;SDS011;69232;47.488;19.268;2023-09-18T14:48:42;8.95;;;4.95;;
79747;SDS011;69232;47.488;19.268;2023-09-18T14:51:08;9.60;;;5.03;;
79747;SDS011;69232;47.488;19.268;2023-09-18T14:53:33;7.68;;;5.05;;